sensor_id;sensor_type;location;lat;lon;timestamp;temperature;humidity
41435;DHT22;27177;22.262;114.192;2022-09-03T00:02:05;26.10;99.90
41435;DHT22;27177;22.262;114.192;2022-09-03T00:13:16;26.30;99.90
41435;DHT22;27177;22.262;114.192;2022-09-03T00:15:45;26.40;99.90
41435;DHT22;27177;22.262;114.192;2022-09-03T00:18:16;26.40;99.90
41435;DHT22;27177;22.262;114.192;2022-09-03T00:20:54;26.40;99.90
41435;DHT22;27177;22.262;114.192;2022-09-03T00:23:27;26.40;99.90
41435;DHT22;27177;22.262;114.192;2022-09-03T00:26:15;26.40;99.90
41435;DHT22;27177;22.262;114.192;2022-09-03T00:31:50;26.40;99.90
41435;DHT22;27177;22.262;114.192;2022-09-03T00:34:41;26.50;99.90
41435;DHT22;27177;22.262;114.192;2022-09-03T00:37:10;26.40;99.90
41435;DHT22;27177;22.262;114.192;2022-09-03T00:39:37;26.50;99.90
41435;DHT22;27177;22.262;114.192;2022-09-03T00:42:20;26.60;99.90
41435;DHT22;27177;22.262;114.192;2022-09-03T00:50:52;26.80;99.90
41435;DHT22;27177;22.262;114.192;2022-09-03T00:56:03;26.70;99.90
41435;DHT22;27177;22.262;114.192;2022-09-03T01:01:29;26.80;99.90
41435;DHT22;27177;22.262;114.192;2022-09-03T01:04:10;26.90;99.90
41435;DHT22;27177;22.262;114.192;2022-09-03T01:07:08;26.90;99.90
41435;DHT22;27177;22.262;114.192;2022-09-03T01:09:55;26.90;99.90
41435;DHT22;27177;22.262;114.192;2022-09-03T01:16:05;27.00;99.90
41435;DHT22;27177;22.262;114.192;2022-09-03T01:23:38;27.10;99.90
41435;DHT22;27177;22.262;114.192;2022-09-03T01:34:19;27.20;99.90
41435;DHT22;27177;22.262;114.192;2022-09-03T01:36:57;27.10;99.90
41435;DHT22;27177;22.262;114.192;2022-09-03T01:39:31;27.20;99.90
41435;DHT22;27177;22.262;114.192;2022-09-03T01:45:20;27.30;99.90
41435;DHT22;27177;22.262;114.192;2022-09-03T01:48:09;27.40;99.90
41435;DHT22;27177;22.262;114.192;2022-09-03T01:56:07;27.60;99.90
41435;DHT22;27177;22.262;114.192;2022-09-03T02:01:29;27.70;99.90
41435;DHT22;27177;22.262;114.192;2022-09-03T02:03:58;27.70;99.90
41435;DHT22;27177;22.262;114.192;2022-09-03T02:06:27;27.70;99.90
41435;DHT22;27177;22.262;114.192;2022-09-03T02:08:56;27.80;99.90
41435;DHT22;27177;22.262;114.192;2022-09-03T02:11:24;27.90;99.90
41435;DHT22;27177;22.262;114.192;2022-09-03T02:13:53;27.90;99.90
41435;DHT22;27177;22.262;114.192;2022-09-03T02:16:24;27.90;99.90
41435;DHT22;27177;22.262;114.192;2022-09-03T02:18:57;28.00;99.90
41435;DHT22;27177;22.262;114.192;2022-09-03T02:21:30;28.00;99.70
41435;DHT22;27177;22.262;114.192;2022-09-03T02:23:59;27.90;99.60
41435;DHT22;27177;22.262;114.192;2022-09-03T02:26:26;27.90;99.90
41435;DHT22;27177;22.262;114.192;2022-09-03T02:28:54;27.90;99.90
41435;DHT22;27177;22.262;114.192;2022-09-03T02:31:21;28.00;99.90
41435;DHT22;27177;22.262;114.192;2022-09-03T02:33:49;28.00;99.90
41435;DHT22;27177;22.262;114.192;2022-09-03T02:36:20;28.10;99.50
41435;DHT22;27177;22.262;114.192;2022-09-03T02:38:50;28.10;99.20
41435;DHT22;27177;22.262;114.192;2022-09-03T02:41:17;28.10;99.90
41435;DHT22;27177;22.262;114.192;2022-09-03T02:46:23;28.30;99.90
41435;DHT22;27177;22.262;114.192;2022-09-03T02:48:53;28.20;99.10
41435;DHT22;27177;22.262;114.192;2022-09-03T02:51:20;28.20;99.50
41435;DHT22;27177;22.262;114.192;2022-09-03T02:53:47;28.20;99.60
41435;DHT22;27177;22.262;114.192;2022-09-03T02:56:14;28.20;99.10
41435;DHT22;27177;22.262;114.192;2022-09-03T02:58:41;28.30;99.40
41435;DHT22;27177;22.262;114.192;2022-09-03T03:01:08;28.30;99.90
41435;DHT22;27177;22.262;114.192;2022-09-03T03:03:39;28.40;99.10
41435;DHT22;27177;22.262;114.192;2022-09-03T03:06:06;28.50;99.20
41435;DHT22;27177;22.262;114.192;2022-09-03T03:08:33;28.50;99.20
41435;DHT22;27177;22.262;114.192;2022-09-03T03:11:00;28.50;99.20
41435;DHT22;27177;22.262;114.192;2022-09-03T03:13:31;28.50;99.30
41435;DHT22;27177;22.262;114.192;2022-09-03T03:16:04;28.60;99.10
41435;DHT22;27177;22.262;114.192;2022-09-03T03:18:32;28.70;99.00
41435;DHT22;27177;22.262;114.192;2022-09-03T03:21:10;28.80;99.00
41435;DHT22;27177;22.262;114.192;2022-09-03T03:23:38;28.80;98.90
41435;DHT22;27177;22.262;114.192;2022-09-03T03:26:10;28.90;99.00
41435;DHT22;27177;22.262;114.192;2022-09-03T03:28:38;28.90;98.60
41435;DHT22;27177;22.262;114.192;2022-09-03T03:31:13;29.00;98.70
41435;DHT22;27177;22.262;114.192;2022-09-03T03:33:41;28.80;98.80
41435;DHT22;27177;22.262;114.192;2022-09-03T03:36:14;28.90;99.30
41435;DHT22;27177;22.262;114.192;2022-09-03T03:38:42;29.10;98.90
41435;DHT22;27177;22.262;114.192;2022-09-03T03:41:17;29.10;98.40
41435;DHT22;27177;22.262;114.192;2022-09-03T03:43:44;29.20;98.80
41435;DHT22;27177;22.262;114.192;2022-09-03T03:46:11;29.30;99.00
41435;DHT22;27177;22.262;114.192;2022-09-03T03:48:39;29.50;98.50
41435;DHT22;27177;22.262;114.192;2022-09-03T03:51:08;29.40;98.10
41435;DHT22;27177;22.262;114.192;2022-09-03T03:53:36;29.40;98.60
41435;DHT22;27177;22.262;114.192;2022-09-03T03:56:06;29.40;98.60
41435;DHT22;27177;22.262;114.192;2022-09-03T03:58:35;29.40;98.80
41435;DHT22;27177;22.262;114.192;2022-09-03T04:01:18;29.30;97.70
41435;DHT22;27177;22.262;114.192;2022-09-03T04:03:46;29.30;98.30
41435;DHT22;27177;22.262;114.192;2022-09-03T04:06:16;29.30;98.30
41435;DHT22;27177;22.262;114.192;2022-09-03T04:08:45;29.40;98.60
41435;DHT22;27177;22.262;114.192;2022-09-03T04:11:14;29.50;98.50
41435;DHT22;27177;22.262;114.192;2022-09-03T04:13:43;29.50;98.20
41435;DHT22;27177;22.262;114.192;2022-09-03T04:16:12;29.50;98.00
41435;DHT22;27177;22.262;114.192;2022-09-03T04:18:39;29.60;98.20
41435;DHT22;27177;22.262;114.192;2022-09-03T04:21:11;29.60;98.00
41435;DHT22;27177;22.262;114.192;2022-09-03T04:23:43;29.60;98.10
41435;DHT22;27177;22.262;114.192;2022-09-03T04:26:16;29.50;97.90
41435;DHT22;27177;22.262;114.192;2022-09-03T04:28:43;29.60;98.20
41435;DHT22;27177;22.262;114.192;2022-09-03T04:31:12;29.60;97.80
41435;DHT22;27177;22.262;114.192;2022-09-03T04:33:40;29.50;97.60
41435;DHT22;27177;22.262;114.192;2022-09-03T04:36:15;29.60;98.10
41435;DHT22;27177;22.262;114.192;2022-09-03T04:38:44;29.70;98.00
41435;DHT22;27177;22.262;114.192;2022-09-03T04:41:16;29.80;97.70
41435;DHT22;27177;22.262;114.192;2022-09-03T04:43:43;29.90;97.80
41435;DHT22;27177;22.262;114.192;2022-09-03T04:46:12;30.00;97.70
41435;DHT22;27177;22.262;114.192;2022-09-03T04:48:39;29.90;97.80
41435;DHT22;27177;22.262;114.192;2022-09-03T04:51:12;30.00;97.60
41435;DHT22;27177;22.262;114.192;2022-09-03T04:53:41;29.90;97.50
41435;DHT22;27177;22.262;114.192;2022-09-03T04:56:25;30.00;98.00
41435;DHT22;27177;22.262;114.192;2022-09-03T04:58:57;30.20;98.00
41435;DHT22;27177;22.262;114.192;2022-09-03T05:01:26;30.10;97.80
41435;DHT22;27177;22.262;114.192;2022-09-03T05:03:58;30.20;97.90
41435;DHT22;27177;22.262;114.192;2022-09-03T05:06:25;30.20;97.30
41435;DHT22;27177;22.262;114.192;2022-09-03T05:13:56;30.30;97.50
41435;DHT22;27177;22.262;114.192;2022-09-03T05:16:24;30.30;97.10
41435;DHT22;27177;22.262;114.192;2022-09-03T05:21:30;30.40;96.90
41435;DHT22;27177;22.262;114.192;2022-09-03T05:23:58;30.50;97.20
41435;DHT22;27177;22.262;114.192;2022-09-03T05:26:30;30.50;97.50
41435;DHT22;27177;22.262;114.192;2022-09-03T05:28:59;30.50;97.30
41435;DHT22;27177;22.262;114.192;2022-09-03T05:31:28;30.50;97.20
41435;DHT22;27177;22.262;114.192;2022-09-03T05:33:58;30.50;97.00
41435;DHT22;27177;22.262;114.192;2022-09-03T05:36:30;30.60;97.30
41435;DHT22;27177;22.262;114.192;2022-09-03T05:38:58;30.60;97.40
41435;DHT22;27177;22.262;114.192;2022-09-03T05:41:26;30.70;97.40
41435;DHT22;27177;22.262;114.192;2022-09-03T05:43:54;30.70;97.10
41435;DHT22;27177;22.262;114.192;2022-09-03T05:46:23;30.60;96.90
41435;DHT22;27177;22.262;114.192;2022-09-03T05:48:55;30.60;97.50
41435;DHT22;27177;22.262;114.192;2022-09-03T05:51:21;30.60;97.50
41435;DHT22;27177;22.262;114.192;2022-09-03T05:53:48;30.60;96.90
41435;DHT22;27177;22.262;114.192;2022-09-03T05:56:26;30.30;96.90
41435;DHT22;27177;22.262;114.192;2022-09-03T05:58:55;30.20;97.70
41435;DHT22;27177;22.262;114.192;2022-09-03T06:01:26;30.40;97.50
41435;DHT22;27177;22.262;114.192;2022-09-03T06:04:00;30.60;97.70
41435;DHT22;27177;22.262;114.192;2022-09-03T06:06:28;30.70;97.00
41435;DHT22;27177;22.262;114.192;2022-09-03T06:08:57;30.70;97.10
41435;DHT22;27177;22.262;114.192;2022-09-03T06:11:25;30.70;97.00
41435;DHT22;27177;22.262;114.192;2022-09-03T06:13:56;30.50;97.10
41435;DHT22;27177;22.262;114.192;2022-09-03T06:16:31;30.50;97.10
41435;DHT22;27177;22.262;114.192;2022-09-03T06:18:58;30.60;97.20
41435;DHT22;27177;22.262;114.192;2022-09-03T06:21:25;30.70;97.20
41435;DHT22;27177;22.262;114.192;2022-09-03T06:23:55;30.80;97.10
41435;DHT22;27177;22.262;114.192;2022-09-03T06:26:23;30.80;97.40
41435;DHT22;27177;22.262;114.192;2022-09-03T06:28:50;30.80;97.00
41435;DHT22;27177;22.262;114.192;2022-09-03T06:31:20;30.80;97.20
41435;DHT22;27177;22.262;114.192;2022-09-03T06:33:48;30.70;97.50
41435;DHT22;27177;22.262;114.192;2022-09-03T06:36:17;30.70;97.50
41435;DHT22;27177;22.262;114.192;2022-09-03T06:38:45;30.70;97.10
41435;DHT22;27177;22.262;114.192;2022-09-03T06:41:17;30.70;97.50
41435;DHT22;27177;22.262;114.192;2022-09-03T06:44:08;30.70;97.30
41435;DHT22;27177;22.262;114.192;2022-09-03T06:46:39;30.70;97.40
41435;DHT22;27177;22.262;114.192;2022-09-03T06:49:11;30.80;97.30
41435;DHT22;27177;22.262;114.192;2022-09-03T06:51:39;30.80;97.10
41435;DHT22;27177;22.262;114.192;2022-09-03T06:54:07;30.80;97.00
41435;DHT22;27177;22.262;114.192;2022-09-03T06:56:37;30.80;97.30
41435;DHT22;27177;22.262;114.192;2022-09-03T06:59:13;30.70;97.10
41435;DHT22;27177;22.262;114.192;2022-09-03T07:01:55;30.80;97.20
41435;DHT22;27177;22.262;114.192;2022-09-03T07:04:32;30.80;97.40
41435;DHT22;27177;22.262;114.192;2022-09-03T07:07:00;30.80;97.20
41435;DHT22;27177;22.262;114.192;2022-09-03T07:09:27;30.80;97.40
41435;DHT22;27177;22.262;114.192;2022-09-03T07:11:54;30.90;97.30
41435;DHT22;27177;22.262;114.192;2022-09-03T07:14:24;30.90;97.20
41435;DHT22;27177;22.262;114.192;2022-09-03T07:16:54;30.90;97.10
41435;DHT22;27177;22.262;114.192;2022-09-03T07:19:21;30.90;97.20
41435;DHT22;27177;22.262;114.192;2022-09-03T07:21:48;30.80;97.30
41435;DHT22;27177;22.262;114.192;2022-09-03T07:24:15;30.90;97.10
41435;DHT22;27177;22.262;114.192;2022-09-03T07:26:46;30.70;97.20
41435;DHT22;27177;22.262;114.192;2022-09-03T07:29:14;30.60;97.30
41435;DHT22;27177;22.262;114.192;2022-09-03T07:31:44;30.80;97.40
41435;DHT22;27177;22.262;114.192;2022-09-03T07:34:12;30.90;97.00
41435;DHT22;27177;22.262;114.192;2022-09-03T07:39:16;30.90;97.40
41435;DHT22;27177;22.262;114.192;2022-09-03T07:41:46;31.10;97.50
41435;DHT22;27177;22.262;114.192;2022-09-03T07:44:18;31.10;97.30
41435;DHT22;27177;22.262;114.192;2022-09-03T07:46:45;31.20;97.40
41435;DHT22;27177;22.262;114.192;2022-09-03T07:49:12;31.30;97.10
41435;DHT22;27177;22.262;114.192;2022-09-03T07:51:42;31.30;97.10
41435;DHT22;27177;22.262;114.192;2022-09-03T07:54:09;31.20;96.70
41435;DHT22;27177;22.262;114.192;2022-09-03T07:56:38;31.20;96.80
41435;DHT22;27177;22.262;114.192;2022-09-03T07:59:05;31.20;97.10
41435;DHT22;27177;22.262;114.192;2022-09-03T08:01:33;31.20;97.00
41435;DHT22;27177;22.262;114.192;2022-09-03T08:04:02;31.30;96.70
41435;DHT22;27177;22.262;114.192;2022-09-03T08:06:32;31.40;96.70
41435;DHT22;27177;22.262;114.192;2022-09-03T08:11:38;31.60;96.60
41435;DHT22;27177;22.262;114.192;2022-09-03T08:14:17;31.70;96.30
41435;DHT22;27177;22.262;114.192;2022-09-03T08:16:47;31.80;96.20
41435;DHT22;27177;22.262;114.192;2022-09-03T08:19:15;31.80;96.30
41435;DHT22;27177;22.262;114.192;2022-09-03T08:21:48;31.90;96.60
41435;DHT22;27177;22.262;114.192;2022-09-03T08:24:16;32.10;96.20
41435;DHT22;27177;22.262;114.192;2022-09-03T08:26:56;32.20;95.90
41435;DHT22;27177;22.262;114.192;2022-09-03T08:29:22;32.30;95.70
41435;DHT22;27177;22.262;114.192;2022-09-03T08:31:49;32.50;95.90
41435;DHT22;27177;22.262;114.192;2022-09-03T08:34:16;32.70;95.30
41435;DHT22;27177;22.262;114.192;2022-09-03T08:36:50;32.70;95.10
41435;DHT22;27177;22.262;114.192;2022-09-03T08:39:19;32.90;95.10
41435;DHT22;27177;22.262;114.192;2022-09-03T08:58:08;32.90;95.20
41435;DHT22;27177;22.262;114.192;2022-09-03T09:17:54;31.80;95.90
41435;DHT22;27177;22.262;114.192;2022-09-03T09:23:03;31.40;96.20
41435;DHT22;27177;22.262;114.192;2022-09-03T09:25:50;31.20;96.40
41435;DHT22;27177;22.262;114.192;2022-09-03T09:28:20;31.10;96.70
41435;DHT22;27177;22.262;114.192;2022-09-03T09:30:49;30.90;96.80
41435;DHT22;27177;22.262;114.192;2022-09-03T09:33:18;30.90;97.00
41435;DHT22;27177;22.262;114.192;2022-09-03T09:35:46;30.90;96.90
41435;DHT22;27177;22.262;114.192;2022-09-03T09:38:13;30.80;96.80
41435;DHT22;27177;22.262;114.192;2022-09-03T09:40:43;30.70;97.10
41435;DHT22;27177;22.262;114.192;2022-09-03T09:43:15;30.70;97.10
41435;DHT22;27177;22.262;114.192;2022-09-03T09:45:44;30.60;97.40
41435;DHT22;27177;22.262;114.192;2022-09-03T09:48:37;30.60;97.20
41435;DHT22;27177;22.262;114.192;2022-09-03T09:51:09;30.50;97.40
41435;DHT22;27177;22.262;114.192;2022-09-03T09:53:37;30.40;97.30
41435;DHT22;27177;22.262;114.192;2022-09-03T09:56:05;30.30;97.40
41435;DHT22;27177;22.262;114.192;2022-09-03T09:58:33;30.30;97.60
41435;DHT22;27177;22.262;114.192;2022-09-03T10:01:11;30.20;98.10
41435;DHT22;27177;22.262;114.192;2022-09-03T10:03:51;30.20;97.90
41435;DHT22;27177;22.262;114.192;2022-09-03T10:06:31;30.20;97.60
41435;DHT22;27177;22.262;114.192;2022-09-03T10:14:35;30.10;98.00
41435;DHT22;27177;22.262;114.192;2022-09-03T10:17:59;30.00;97.90
41435;DHT22;27177;22.262;114.192;2022-09-03T10:23:17;29.90;97.90
41435;DHT22;27177;22.262;114.192;2022-09-03T10:28:21;29.90;98.00
41435;DHT22;27177;22.262;114.192;2022-09-03T10:31:21;29.90;98.20
41435;DHT22;27177;22.262;114.192;2022-09-03T10:33:56;29.90;98.20
41435;DHT22;27177;22.262;114.192;2022-09-03T10:39:28;29.80;98.20
41435;DHT22;27177;22.262;114.192;2022-09-03T10:50:12;29.70;98.30
41435;DHT22;27177;22.262;114.192;2022-09-03T11:01:23;29.60;98.30
41435;DHT22;27177;22.262;114.192;2022-09-03T11:07:04;29.60;98.60
41435;DHT22;27177;22.262;114.192;2022-09-03T11:09:41;29.70;98.60
41435;DHT22;27177;22.262;114.192;2022-09-03T11:12:15;29.60;98.60
41435;DHT22;27177;22.262;114.192;2022-09-03T11:14:56;29.60;98.70
41435;DHT22;27177;22.262;114.192;2022-09-03T11:17:30;29.60;98.80
41435;DHT22;27177;22.262;114.192;2022-09-03T11:22:30;29.50;98.90
41435;DHT22;27177;22.262;114.192;2022-09-03T11:25:00;29.60;98.80
41435;DHT22;27177;22.262;114.192;2022-09-03T11:27:55;29.50;99.00
41435;DHT22;27177;22.262;114.192;2022-09-03T11:30:57;29.50;99.10
41435;DHT22;27177;22.262;114.192;2022-09-03T11:33:29;29.50;99.20
41435;DHT22;27177;22.262;114.192;2022-09-03T11:35:59;29.50;99.20
41435;DHT22;27177;22.262;114.192;2022-09-03T11:38:29;29.50;99.40
41435;DHT22;27177;22.262;114.192;2022-09-03T11:43:46;29.40;99.30
41435;DHT22;27177;22.262;114.192;2022-09-03T11:48:50;29.40;99.20
41435;DHT22;27177;22.262;114.192;2022-09-03T11:53:55;29.50;99.20
41435;DHT22;27177;22.262;114.192;2022-09-03T11:56:22;29.40;99.40
41435;DHT22;27177;22.262;114.192;2022-09-03T12:02:18;29.40;99.30
41435;DHT22;27177;22.262;114.192;2022-09-03T12:10:33;29.30;99.70
41435;DHT22;27177;22.262;114.192;2022-09-03T12:18:50;29.20;99.80
41435;DHT22;27177;22.262;114.192;2022-09-03T12:21:20;29.20;99.70
41435;DHT22;27177;22.262;114.192;2022-09-03T12:23:49;29.20;99.90
41435;DHT22;27177;22.262;114.192;2022-09-03T12:26:25;29.20;99.70
41435;DHT22;27177;22.262;114.192;2022-09-03T12:28:57;29.20;99.50
41435;DHT22;27177;22.262;114.192;2022-09-03T12:31:30;29.30;99.40
41435;DHT22;27177;22.262;114.192;2022-09-03T12:34:06;29.30;99.50
41435;DHT22;27177;22.262;114.192;2022-09-03T12:36:41;29.30;99.70
41435;DHT22;27177;22.262;114.192;2022-09-03T12:41:59;29.20;99.90
41435;DHT22;27177;22.262;114.192;2022-09-03T12:44:27;29.10;99.90
41435;DHT22;27177;22.262;114.192;2022-09-03T12:49:37;29.20;99.60
41435;DHT22;27177;22.262;114.192;2022-09-03T12:52:26;29.10;99.60
41435;DHT22;27177;22.262;114.192;2022-09-03T12:57:33;29.20;99.40
41435;DHT22;27177;22.262;114.192;2022-09-03T13:00:08;29.20;99.40
41435;DHT22;27177;22.262;114.192;2022-09-03T13:02:52;29.20;99.50
41435;DHT22;27177;22.262;114.192;2022-09-03T13:05:43;29.20;99.30
41435;DHT22;27177;22.262;114.192;2022-09-03T13:08:23;29.20;99.30
41435;DHT22;27177;22.262;114.192;2022-09-03T13:10:54;29.20;99.40
41435;DHT22;27177;22.262;114.192;2022-09-03T13:13:32;29.10;99.40
41435;DHT22;27177;22.262;114.192;2022-09-03T13:30:15;29.00;99.70
41435;DHT22;27177;22.262;114.192;2022-09-03T13:35:34;28.90;99.90
41435;DHT22;27177;22.262;114.192;2022-09-03T13:46:21;28.80;99.90
41435;DHT22;27177;22.262;114.192;2022-09-03T13:48:50;28.80;99.90
41435;DHT22;27177;22.262;114.192;2022-09-03T13:51:54;28.80;99.90
41435;DHT22;27177;22.262;114.192;2022-09-03T13:54:44;28.70;99.90
41435;DHT22;27177;22.262;114.192;2022-09-03T14:01:14;28.70;99.90
41435;DHT22;27177;22.262;114.192;2022-09-03T14:09:22;28.60;99.90
41435;DHT22;27177;22.262;114.192;2022-09-03T14:15:07;28.70;99.90
41435;DHT22;27177;22.262;114.192;2022-09-03T14:20:46;28.70;99.90
41435;DHT22;27177;22.262;114.192;2022-09-03T14:24:09;28.70;99.90
41435;DHT22;27177;22.262;114.192;2022-09-03T14:26:55;28.70;99.90
41435;DHT22;27177;22.262;114.192;2022-09-03T14:29:34;28.70;99.90
41435;DHT22;27177;22.262;114.192;2022-09-03T14:32:26;28.70;99.90
41435;DHT22;27177;22.262;114.192;2022-09-03T14:41:43;28.80;99.90
41435;DHT22;27177;22.262;114.192;2022-09-03T14:50:15;28.80;99.90
41435;DHT22;27177;22.262;114.192;2022-09-03T14:56:25;28.80;99.90
41435;DHT22;27177;22.262;114.192;2022-09-03T15:01:37;28.90;99.80
41435;DHT22;27177;22.262;114.192;2022-09-03T15:12:27;28.90;99.90
41435;DHT22;27177;22.262;114.192;2022-09-03T15:15:04;28.80;99.90
41435;DHT22;27177;22.262;114.192;2022-09-03T15:20:30;28.90;99.90
41435;DHT22;27177;22.262;114.192;2022-09-03T15:26:04;28.90;99.90
41435;DHT22;27177;22.262;114.192;2022-09-03T15:36:50;28.70;99.90
41435;DHT22;27177;22.262;114.192;2022-09-03T15:39:34;28.70;99.90
41435;DHT22;27177;22.262;114.192;2022-09-03T15:42:21;28.80;99.90
41435;DHT22;27177;22.262;114.192;2022-09-03T15:45:00;28.80;99.90
41435;DHT22;27177;22.262;114.192;2022-09-03T15:50:23;28.70;99.90
41435;DHT22;27177;22.262;114.192;2022-09-03T15:56:06;28.70;99.90
41435;DHT22;27177;22.262;114.192;2022-09-03T16:07:00;28.60;99.90
41435;DHT22;27177;22.262;114.192;2022-09-03T16:09:47;28.60;99.90
41435;DHT22;27177;22.262;114.192;2022-09-03T16:12:44;28.60;99.90
41435;DHT22;27177;22.262;114.192;2022-09-03T16:25:49;28.40;99.90
41435;DHT22;27177;22.262;114.192;2022-09-03T16:28:44;28.40;99.90
41435;DHT22;27177;22.262;114.192;2022-09-03T16:31:48;28.30;99.90
41435;DHT22;27177;22.262;114.192;2022-09-03T16:40:10;28.50;99.90
41435;DHT22;27177;22.262;114.192;2022-09-03T16:47:59;28.40;99.90
41435;DHT22;27177;22.262;114.192;2022-09-03T17:16:20;28.20;99.90
41435;DHT22;27177;22.262;114.192;2022-09-03T17:24:19;28.20;99.90
41435;DHT22;27177;22.262;114.192;2022-09-03T17:27:08;28.20;99.90
41435;DHT22;27177;22.262;114.192;2022-09-03T17:30:00;28.20;99.90
41435;DHT22;27177;22.262;114.192;2022-09-03T17:35:31;28.20;99.90
41435;DHT22;27177;22.262;114.192;2022-09-03T17:38:28;28.20;99.90
41435;DHT22;27177;22.262;114.192;2022-09-03T17:43:49;28.10;99.90
41435;DHT22;27177;22.262;114.192;2022-09-03T17:49:40;28.10;99.90
41435;DHT22;27177;22.262;114.192;2022-09-03T17:54:53;28.10;99.90
41435;DHT22;27177;22.262;114.192;2022-09-03T17:57:49;28.10;99.90
41435;DHT22;27177;22.262;114.192;2022-09-03T18:00:36;28.10;99.90
41435;DHT22;27177;22.262;114.192;2022-09-03T18:03:26;28.00;99.90
41435;DHT22;27177;22.262;114.192;2022-09-03T18:06:03;28.00;99.90
41435;DHT22;27177;22.262;114.192;2022-09-03T18:11:17;28.00;99.90
41435;DHT22;27177;22.262;114.192;2022-09-03T18:14:42;28.00;99.90
41435;DHT22;27177;22.262;114.192;2022-09-03T18:20:04;27.90;99.90
41435;DHT22;27177;22.262;114.192;2022-09-03T18:23:43;27.90;99.90
41435;DHT22;27177;22.262;114.192;2022-09-03T18:26:13;27.90;99.90
41435;DHT22;27177;22.262;114.192;2022-09-03T18:29:11;27.90;99.90
41435;DHT22;27177;22.262;114.192;2022-09-03T18:31:57;27.90;99.90
41435;DHT22;27177;22.262;114.192;2022-09-03T18:34:42;27.90;99.90
41435;DHT22;27177;22.262;114.192;2022-09-03T18:37:27;27.90;99.90
41435;DHT22;27177;22.262;114.192;2022-09-03T18:40:18;27.90;99.90
41435;DHT22;27177;22.262;114.192;2022-09-03T18:43:40;27.90;99.90
41435;DHT22;27177;22.262;114.192;2022-09-03T18:52:58;27.70;99.90
41435;DHT22;27177;22.262;114.192;2022-09-03T18:56:10;27.70;99.90
41435;DHT22;27177;22.262;114.192;2022-09-03T19:01:43;27.60;99.90
41435;DHT22;27177;22.262;114.192;2022-09-03T19:04:39;27.50;99.90
41435;DHT22;27177;22.262;114.192;2022-09-03T19:07:36;27.50;99.90
41435;DHT22;27177;22.262;114.192;2022-09-03T19:10:42;27.40;99.90
41435;DHT22;27177;22.262;114.192;2022-09-03T19:13:36;27.40;99.90
41435;DHT22;27177;22.262;114.192;2022-09-03T19:19:38;27.40;99.90
41435;DHT22;27177;22.262;114.192;2022-09-03T19:22:36;27.30;99.90
41435;DHT22;27177;22.262;114.192;2022-09-03T19:25:24;27.30;99.90
41435;DHT22;27177;22.262;114.192;2022-09-03T19:28:25;27.30;99.90
41435;DHT22;27177;22.262;114.192;2022-09-03T19:34:21;27.20;99.90
41435;DHT22;27177;22.262;114.192;2022-09-03T19:43:37;27.10;99.90
41435;DHT22;27177;22.262;114.192;2022-09-03T19:46:53;27.20;99.90
41435;DHT22;27177;22.262;114.192;2022-09-03T19:53:00;27.20;99.90
41435;DHT22;27177;22.262;114.192;2022-09-03T19:55:54;27.20;99.90
41435;DHT22;27177;22.262;114.192;2022-09-03T19:59:05;27.20;99.90
41435;DHT22;27177;22.262;114.192;2022-09-03T20:01:53;27.30;99.90
41435;DHT22;27177;22.262;114.192;2022-09-03T20:04:46;27.30;99.90
41435;DHT22;27177;22.262;114.192;2022-09-03T20:07:33;27.30;99.90
41435;DHT22;27177;22.262;114.192;2022-09-03T20:10:20;27.30;99.90
41435;DHT22;27177;22.262;114.192;2022-09-03T20:15:18;27.30;99.90
41435;DHT22;27177;22.262;114.192;2022-09-03T20:17:59;27.30;99.90
41435;DHT22;27177;22.262;114.192;2022-09-03T20:20:52;27.30;99.90
41435;DHT22;27177;22.262;114.192;2022-09-03T20:26:36;27.20;99.90
41435;DHT22;27177;22.262;114.192;2022-09-03T20:37:48;27.10;99.90
41435;DHT22;27177;22.262;114.192;2022-09-03T20:46:09;27.10;99.90
41435;DHT22;27177;22.262;114.192;2022-09-03T20:51:26;27.10;99.90
41435;DHT22;27177;22.262;114.192;2022-09-03T20:54:19;27.00;99.90
41435;DHT22;27177;22.262;114.192;2022-09-03T20:59:43;27.00;99.90
41435;DHT22;27177;22.262;114.192;2022-09-03T21:05:37;27.00;99.90
41435;DHT22;27177;22.262;114.192;2022-09-03T21:19:09;27.00;99.90
41435;DHT22;27177;22.262;114.192;2022-09-03T21:22:00;26.90;99.90
41435;DHT22;27177;22.262;114.192;2022-09-03T21:24:47;26.90;99.90
41435;DHT22;27177;22.262;114.192;2022-09-03T21:27:18;26.90;99.90
41435;DHT22;27177;22.262;114.192;2022-09-03T21:29:58;26.90;99.90
41435;DHT22;27177;22.262;114.192;2022-09-03T21:37:58;26.90;99.90
41435;DHT22;27177;22.262;114.192;2022-09-03T21:40:29;26.80;99.90
41435;DHT22;27177;22.262;114.192;2022-09-03T21:43:03;26.80;99.90
41435;DHT22;27177;22.262;114.192;2022-09-03T21:54:10;26.70;99.90
41435;DHT22;27177;22.262;114.192;2022-09-03T22:02:31;26.60;99.90
41435;DHT22;27177;22.262;114.192;2022-09-03T22:04:59;26.60;99.90
41435;DHT22;27177;22.262;114.192;2022-09-03T22:15:45;26.60;99.90
41435;DHT22;27177;22.262;114.192;2022-09-03T22:18:29;26.60;99.90
41435;DHT22;27177;22.262;114.192;2022-09-03T22:21:31;26.60;99.90
41435;DHT22;27177;22.262;114.192;2022-09-03T22:24:17;26.60;99.90
41435;DHT22;27177;22.262;114.192;2022-09-03T22:32:10;26.50;99.90
41435;DHT22;27177;22.262;114.192;2022-09-03T22:40:53;26.50;99.90
41435;DHT22;27177;22.262;114.192;2022-09-03T22:46:15;26.50;99.90
41435;DHT22;27177;22.262;114.192;2022-09-03T22:51:32;26.40;99.90
41435;DHT22;27177;22.262;114.192;2022-09-03T22:54:18;26.40;99.90
41435;DHT22;27177;22.262;114.192;2022-09-03T22:56:48;26.40;99.90
41435;DHT22;27177;22.262;114.192;2022-09-03T22:59:37;26.40;99.90
41435;DHT22;27177;22.262;114.192;2022-09-03T23:02:12;26.40;99.90
41435;DHT22;27177;22.262;114.192;2022-09-03T23:07:09;26.40;99.90
41435;DHT22;27177;22.262;114.192;2022-09-03T23:09:56;26.40;99.90
41435;DHT22;27177;22.262;114.192;2022-09-03T23:12:45;26.40;99.90
41435;DHT22;27177;22.262;114.192;2022-09-03T23:15:21;26.40;99.90
41435;DHT22;27177;22.262;114.192;2022-09-03T23:20:37;26.40;99.90
41435;DHT22;27177;22.262;114.192;2022-09-03T23:23:19;26.40;99.90
41435;DHT22;27177;22.262;114.192;2022-09-03T23:26:25;26.40;99.90
41435;DHT22;27177;22.262;114.192;2022-09-03T23:29:47;26.50;99.90